createdAt,value
2023-01-07T00:00:02.200Z,19.85
2023-01-07T00:03:16.571Z,20.33
2023-01-07T00:06:27.599Z,19.80
2023-01-07T00:09:30.058Z,18.62
2023-01-07T00:12:33.207Z,20.23
2023-01-07T00:15:37.112Z,18.87
2023-01-07T00:21:42.825Z,17.87
2023-01-07T00:24:45.505Z,19.50
2023-01-07T00:27:48.298Z,18.52
2023-01-07T00:30:51.912Z,18.42
2023-01-07T00:33:55.252Z,19.00
2023-01-07T00:37:17.986Z,17.92
2023-01-07T00:40:22.087Z,18.00
2023-01-07T00:43:24.969Z,17.45
2023-01-07T00:46:27.512Z,16.67
2023-01-07T00:49:30.343Z,18.35
2023-01-07T00:52:32.705Z,18.12
2023-01-07T00:55:35.583Z,16.77
2023-01-07T00:58:38.458Z,17.05
2023-01-07T01:01:41.443Z,16.87
2023-01-07T01:04:44.002Z,16.50
2023-01-07T01:07:49.290Z,16.08
2023-01-07T01:10:51.650Z,15.30
2023-01-07T01:13:54.740Z,16.70
2023-01-07T01:17:02.828Z,16.10
2023-01-07T01:20:13.764Z,15.88
2023-01-07T01:23:16.238Z,15.93
2023-01-07T01:26:22.932Z,16.20
2023-01-07T01:29:28.311Z,15.77
2023-01-07T01:32:31.697Z,16.60
2023-01-07T01:35:34.202Z,16.12
2023-01-07T01:38:37.183Z,16.10
2023-01-07T01:41:40.167Z,17.17
2023-01-07T01:48:09.755Z,16.67
2023-01-07T01:51:17.170Z,17.00
2023-01-07T01:54:20.659Z,16.30
2023-01-07T01:57:26.339Z,17.35
2023-01-07T02:00:30.197Z,17.77
2023-01-07T02:03:36.518Z,18.27
2023-01-07T02:06:50.686Z,17.65
2023-01-07T02:10:10.048Z,18.02
2023-01-07T02:13:27.817Z,17.77
2023-01-07T02:16:48.669Z,17.05
2023-01-07T02:20:12.797Z,16.12
2023-01-07T02:23:15.684Z,17.35
2023-01-07T02:26:45.641Z,17.20
2023-01-07T02:29:57.295Z,16.77
2023-01-07T02:33:14.728Z,16.60
2023-01-07T02:36:29.738Z,16.75
2023-01-07T02:40:04.334Z,17.35
2023-01-07T02:43:16.563Z,17.15
2023-01-07T02:46:25.897Z,18.08
2023-01-07T02:49:28.787Z,17.87
2023-01-07T02:52:33.381Z,17.42
2023-01-07T02:55:50.430Z,17.83
2023-01-07T02:59:06.183Z,18.37
2023-01-07T03:02:39.893Z,17.70
2023-01-07T03:06:03.956Z,17.30
2023-01-07T03:09:33.859Z,17.15
2023-01-07T03:12:54.814Z,17.65
2023-01-07T03:16:04.076Z,17.33
2023-01-07T03:19:16.636Z,16.92
2023-01-07T03:22:22.644Z,16.62
2023-01-07T03:25:30.781Z,17.00
2023-01-07T03:28:40.533Z,16.40
2023-01-07T03:32:02.951Z,17.60
2023-01-07T03:35:06.269Z,16.15
2023-01-07T03:38:10.274Z,16.75
2023-01-07T03:41:33.070Z,15.85
2023-01-07T03:44:37.057Z,15.65
2023-01-07T03:47:45.111Z,16.15
2023-01-07T03:50:48.050Z,17.10
2023-01-07T03:53:51.055Z,16.30
2023-01-07T03:56:53.528Z,16.42
2023-01-07T03:59:56.188Z,16.35
2023-01-07T04:02:58.629Z,16.27
2023-01-07T04:06:01.620Z,15.68
2023-01-07T04:09:04.297Z,16.67
2023-01-07T04:15:11.338Z,15.40
2023-01-07T04:18:14.167Z,16.12
2023-01-07T04:21:16.573Z,15.57
2023-01-07T04:24:19.287Z,16.70
2023-01-07T04:27:21.787Z,15.80
2023-01-07T04:30:24.740Z,16.80
2023-01-07T04:33:27.253Z,17.23
2023-01-07T04:36:30.039Z,16.67
2023-01-07T04:39:32.779Z,17.23
2023-01-07T04:42:38.305Z,15.43
2023-01-07T04:45:42.205Z,16.83
2023-01-07T04:48:45.339Z,16.83
2023-01-07T04:51:47.934Z,16.67
2023-01-07T04:57:56.397Z,16.25
2023-01-07T05:00:59.966Z,15.70
2023-01-07T05:04:03.754Z,16.85
2023-01-07T05:07:08.562Z,16.98
2023-01-07T05:10:11.003Z,17.20
2023-01-07T05:13:18.094Z,17.77
2023-01-07T05:16:21.030Z,17.45
2023-01-07T05:19:23.813Z,16.80
2023-01-07T05:22:26.865Z,17.27
2023-01-07T05:25:30.416Z,17.42
2023-01-07T05:28:32.974Z,17.12
2023-01-07T05:31:37.006Z,16.25
2023-01-07T05:34:40.123Z,16.63
2023-01-07T05:37:43.545Z,18.02
2023-01-07T05:40:50.023Z,16.48
2023-01-07T05:43:55.699Z,16.30
2023-01-07T05:46:58.167Z,17.10
2023-01-07T05:50:00.825Z,16.85
2023-01-07T05:53:03.195Z,16.55
2023-01-07T05:56:06.074Z,16.73
2023-01-07T05:59:08.450Z,17.55
2023-01-07T06:02:11.250Z,16.33
2023-01-07T06:05:13.917Z,17.27
2023-01-07T06:08:16.349Z,16.80
2023-01-07T06:11:19.061Z,15.88
2023-01-07T06:14:21.417Z,16.12
2023-01-07T06:17:24.097Z,16.67
2023-01-07T06:20:26.621Z,16.42
2023-01-07T06:23:29.645Z,16.77
2023-01-07T06:26:32.338Z,17.35
2023-01-07T06:29:35.074Z,17.30
2023-01-07T06:32:39.149Z,17.17
2023-01-07T06:35:42.253Z,17.75
2023-01-07T06:38:44.649Z,17.62
2023-01-07T06:41:47.367Z,18.45
2023-01-07T06:44:49.721Z,18.27
2023-01-07T06:47:53.619Z,18.27
2023-01-07T06:50:56.050Z,17.00
2023-01-07T06:53:58.771Z,18.67
2023-01-07T06:57:01.417Z,17.05
2023-01-07T07:00:07.612Z,19.15
2023-01-07T07:03:10.211Z,18.17
2023-01-07T07:06:12.938Z,18.50
2023-01-07T07:09:15.354Z,18.60
2023-01-07T07:12:19.319Z,18.42
2023-01-07T07:15:21.693Z,18.85
2023-01-07T07:18:24.353Z,17.08
2023-01-07T07:21:26.756Z,18.73
2023-01-07T07:24:29.409Z,18.83
2023-01-07T07:27:31.901Z,18.58
2023-01-07T07:30:45.921Z,18.10
2023-01-07T07:33:50.207Z,17.70
2023-01-07T07:36:53.034Z,18.02
2023-01-07T07:39:55.928Z,17.98
2023-01-07T07:43:11.592Z,18.58
2023-01-07T07:46:15.506Z,17.17
2023-01-07T07:49:21.360Z,19.00
2023-01-07T07:52:23.790Z,19.10
2023-01-07T07:55:26.751Z,18.25
2023-01-07T07:58:29.114Z,18.35
2023-01-07T08:01:31.918Z,17.87
2023-01-07T08:04:37.323Z,18.90
2023-01-07T08:07:39.831Z,18.98
2023-01-07T08:10:42.706Z,19.55
2023-01-07T08:13:46.412Z,17.95
2023-01-07T08:19:51.262Z,18.17
2023-01-07T08:22:54.370Z,18.55
2023-01-07T08:26:02.859Z,18.52
2023-01-07T08:29:05.552Z,17.85
2023-01-07T08:32:07.949Z,18.00
2023-01-07T08:35:10.918Z,18.40
2023-01-07T08:38:13.464Z,19.25
2023-01-07T08:41:16.111Z,18.50
2023-01-07T08:44:18.457Z,18.70
2023-01-07T08:47:21.186Z,18.42
2023-01-07T08:50:28.385Z,18.73
2023-01-07T08:53:31.067Z,18.65
2023-01-07T08:56:33.741Z,17.25
2023-01-07T08:59:38.698Z,17.35
2023-01-07T09:02:41.119Z,17.55
2023-01-07T09:05:46.706Z,18.10
2023-01-07T09:08:52.423Z,18.17
2023-01-07T09:11:55.097Z,18.05
2023-01-07T09:14:57.639Z,17.90
2023-01-07T09:18:03.500Z,18.35
2023-01-07T09:21:06.162Z,16.40
2023-01-07T09:24:09.400Z,16.57
2023-01-07T09:27:11.850Z,16.60
2023-01-07T09:30:14.962Z,16.58
2023-01-07T09:33:17.331Z,16.00
2023-01-07T09:36:19.984Z,15.73
2023-01-07T09:39:22.324Z,17.17
2023-01-07T09:42:27.716Z,16.42
2023-01-07T09:45:36.857Z,16.85
2023-01-07T09:48:44.968Z,15.95
2023-01-07T09:51:57.289Z,15.57
2023-01-07T09:55:17.566Z,15.35
2023-01-07T09:58:21.858Z,15.65
2023-01-07T10:01:36.596Z,14.87
2023-01-07T10:05:02.222Z,15.43
2023-01-07T10:08:33.502Z,14.98
2023-01-07T10:12:17.679Z,14.38
2023-01-07T10:15:38.605Z,15.10
2023-01-07T10:18:54.759Z,13.95
2023-01-07T10:22:02.810Z,13.43
2023-01-07T10:25:19.680Z,12.35
2023-01-07T10:28:38.857Z,12.18
2023-01-07T10:31:42.712Z,12.25
2023-01-07T10:34:48.019Z,11.85
2023-01-07T10:37:51.230Z,11.68
2023-01-07T10:40:59.538Z,12.10
2023-01-07T10:44:25.890Z,10.43
2023-01-07T10:47:30.986Z,11.25
2023-01-07T10:51:17.936Z,10.45
2023-01-07T10:54:34.520Z,10.63
2023-01-07T10:57:38.855Z,9.93
2023-01-07T11:00:41.737Z,10.07
2023-01-07T11:03:47.071Z,10.23
2023-01-07T11:06:59.000Z,9.63
2023-01-07T11:10:05.480Z,9.48
2023-01-07T11:13:24.492Z,9.77
2023-01-07T11:16:31.979Z,10.07
2023-01-07T11:19:44.558Z,9.95
2023-01-07T11:22:47.243Z,9.67
2023-01-07T11:25:49.641Z,9.48
2023-01-07T11:28:56.493Z,9.93
2023-01-07T11:32:02.631Z,9.23
2023-01-07T11:35:18.039Z,9.43
2023-01-07T11:38:30.730Z,9.00
2023-01-07T11:41:53.053Z,9.45
2023-01-07T11:48:30.327Z,10.95
2023-01-07T11:51:40.645Z,13.60
2023-01-07T11:54:50.222Z,9.15
2023-01-07T11:58:28.314Z,8.40
2023-01-07T12:01:23.272Z,9.32
2023-01-07T12:04:36.390Z,9.57
2023-01-07T12:07:44.706Z,10.15
2023-01-07T12:10:59.974Z,10.43
2023-01-07T12:14:20.164Z,10.30
2023-01-07T12:17:28.542Z,10.65
2023-01-07T12:21:24.264Z,10.40
2023-01-07T12:24:38.304Z,9.23
2023-01-07T12:27:52.827Z,10.18
2023-01-07T12:31:24.284Z,10.23
2023-01-07T12:34:51.880Z,9.95
2023-01-07T12:38:05.002Z,11.40
2023-01-07T12:41:25.403Z,9.90
2023-01-07T12:44:28.205Z,10.35
2023-01-07T12:47:38.915Z,8.15
2023-01-07T12:50:46.214Z,7.35
2023-01-07T12:54:12.241Z,7.05
2023-01-07T12:57:21.209Z,7.12
2023-01-07T13:00:27.699Z,6.90
2023-01-07T13:04:11.994Z,6.93
2023-01-07T13:07:25.439Z,6.60
2023-01-07T13:10:38.460Z,7.07
2023-01-07T13:13:45.932Z,7.20
2023-01-07T13:16:49.352Z,6.68
2023-01-07T13:19:53.024Z,6.85
2023-01-07T13:22:57.375Z,7.07
2023-01-07T13:26:44.883Z,6.90
2023-01-07T13:30:08.942Z,7.20
2023-01-07T13:33:28.880Z,6.90
2023-01-07T13:37:05.970Z,6.45
2023-01-07T13:40:24.588Z,7.50
2023-01-07T13:43:54.745Z,7.80
2023-01-07T13:46:57.453Z,7.97
2023-01-07T13:50:02.538Z,7.93
2023-01-07T13:53:26.635Z,8.00
2023-01-07T13:59:47.973Z,8.30
2023-01-07T14:02:58.137Z,8.98
2023-01-07T14:06:22.112Z,10.27
2023-01-07T14:09:32.277Z,11.18
2023-01-07T14:13:10.013Z,11.12
2023-01-07T14:16:31.134Z,10.80
2023-01-07T14:19:58.638Z,11.95
2023-01-07T14:23:21.021Z,11.95
2023-01-07T14:26:29.994Z,11.55
2023-01-07T14:29:41.141Z,12.30
2023-01-07T14:32:46.815Z,11.90
2023-01-07T14:35:59.019Z,11.93
2023-01-07T14:39:02.660Z,11.43
2023-01-07T14:42:20.354Z,11.23
2023-01-07T14:45:41.452Z,12.05
2023-01-07T14:48:43.935Z,11.20
2023-01-07T14:52:09.668Z,11.77
2023-01-07T14:55:21.648Z,11.50
2023-01-07T14:58:59.342Z,12.68
2023-01-07T15:02:39.490Z,13.32
2023-01-07T15:06:05.192Z,13.55
2023-01-07T15:09:36.438Z,13.77
2023-01-07T15:13:01.418Z,15.07
2023-01-07T15:19:12.756Z,14.98
2023-01-07T15:22:34.975Z,15.38
2023-01-07T15:25:57.260Z,15.85
2023-01-07T15:29:27.787Z,16.67
2023-01-07T15:32:57.942Z,16.70
2023-01-07T15:36:04.496Z,17.05
2023-01-07T15:39:13.708Z,17.12
2023-01-07T15:42:20.402Z,19.02
2023-01-07T15:45:25.149Z,18.87
2023-01-07T15:48:27.937Z,18.02
2023-01-07T15:51:39.801Z,18.47
2023-01-07T15:54:42.493Z,17.83
2023-01-07T15:57:46.380Z,18.50
2023-01-07T16:00:53.332Z,18.48
2023-01-07T16:03:57.264Z,18.35
2023-01-07T16:07:00.673Z,19.23
2023-01-07T16:13:18.236Z,18.48
2023-01-07T16:16:21.193Z,18.35
2023-01-07T16:19:23.574Z,20.15
2023-01-07T16:22:27.836Z,19.30
2023-01-07T16:25:40.236Z,20.12
2023-01-07T16:28:48.773Z,20.45
2023-01-07T16:31:51.680Z,19.48
2023-01-07T16:35:00.416Z,20.60
2023-01-07T16:38:03.715Z,20.75
2023-01-07T16:41:06.839Z,19.75
2023-01-07T16:44:49.684Z,20.12
2023-01-07T16:48:14.994Z,18.77
2023-01-07T16:51:39.833Z,19.75
2023-01-07T16:54:46.794Z,18.73
2023-01-07T16:57:49.317Z,18.27
2023-01-07T17:00:54.145Z,17.65
2023-01-07T17:03:59.833Z,18.02
2023-01-07T17:07:02.988Z,18.37
2023-01-07T17:10:06.629Z,18.90
2023-01-07T17:13:15.408Z,18.87
2023-01-07T17:16:36.944Z,19.67
2023-01-07T17:19:42.103Z,19.65
2023-01-07T17:22:45.538Z,19.85
2023-01-07T17:25:49.199Z,20.05
2023-01-07T17:29:01.402Z,20.83
2023-01-07T17:32:04.550Z,20.17
2023-01-07T17:35:07.519Z,20.25
2023-01-07T17:38:13.120Z,21.80
2023-01-07T17:41:41.746Z,21.12
2023-01-07T17:44:45.735Z,19.20
2023-01-07T17:47:49.691Z,20.45
2023-01-07T17:50:53.585Z,18.60
2023-01-07T17:53:58.667Z,19.23
2023-01-07T17:57:01.379Z,18.50
2023-01-07T18:00:04.441Z,18.30
2023-01-07T18:03:15.154Z,18.95
2023-01-07T18:06:27.583Z,19.30
2023-01-07T18:09:29.886Z,19.67
2023-01-07T18:12:34.987Z,18.83
2023-01-07T18:15:37.363Z,18.12
2023-01-07T18:18:40.034Z,19.50
2023-01-07T18:21:42.650Z,19.58
2023-01-07T18:24:45.241Z,18.67
2023-01-07T18:27:49.295Z,20.40
2023-01-07T18:30:51.977Z,20.60
2023-01-07T18:33:54.328Z,19.70
2023-01-07T18:36:57.657Z,19.77
2023-01-07T18:40:02.340Z,20.20
2023-01-07T18:43:05.303Z,20.37
2023-01-07T18:46:09.525Z,21.25
2023-01-07T18:49:12.445Z,20.95
2023-01-07T18:52:14.781Z,18.67
2023-01-07T18:55:19.316Z,20.25
2023-01-07T18:58:22.912Z,20.17
2023-01-07T19:01:25.823Z,18.15
2023-01-07T19:04:28.516Z,19.05
2023-01-07T19:07:33.418Z,18.98
2023-01-07T19:10:41.585Z,19.05
2023-01-07T19:13:45.550Z,19.87
2023-01-07T19:16:48.084Z,19.95
2023-01-07T19:19:53.841Z,19.40
2023-01-07T19:23:00.395Z,21.05
2023-01-07T19:26:06.602Z,19.12
2023-01-07T19:29:09.761Z,19.27
2023-01-07T19:32:12.496Z,20.52
2023-01-07T19:35:15.190Z,18.25
2023-01-07T19:38:17.855Z,20.10
2023-01-07T19:41:22.394Z,21.12
2023-01-07T19:44:25.178Z,20.10
2023-01-07T19:47:27.870Z,26.00
2023-01-07T19:50:30.517Z,19.45
2023-01-07T19:53:34.561Z,19.62
2023-01-07T19:56:37.379Z,18.62
2023-01-07T19:59:39.946Z,19.35
2023-01-07T20:02:42.650Z,18.80
2023-01-07T20:05:45.408Z,18.37
2023-01-07T20:08:48.393Z,18.10
2023-01-07T20:11:51.145Z,18.33
2023-01-07T20:14:53.813Z,18.15
2023-01-07T20:17:56.581Z,18.95
2023-01-07T20:20:59.882Z,17.70
2023-01-07T20:24:04.123Z,19.42
2023-01-07T20:27:06.873Z,17.67
2023-01-07T20:30:10.894Z,19.17
2023-01-07T20:33:13.366Z,18.73
2023-01-07T20:36:28.025Z,18.35
2023-01-07T20:39:30.446Z,18.65
2023-01-07T20:42:33.084Z,19.77
2023-01-07T20:45:38.291Z,17.60
2023-01-07T20:48:42.985Z,18.70
2023-01-07T20:51:45.403Z,18.45
2023-01-07T20:54:48.100Z,18.83
2023-01-07T20:57:50.529Z,18.62
2023-01-07T21:00:53.896Z,19.27
2023-01-07T21:03:56.433Z,20.00
2023-01-07T21:06:59.103Z,19.75
2023-01-07T21:10:01.533Z,19.48
2023-01-07T21:13:05.248Z,20.08
2023-01-07T21:16:08.139Z,21.15
2023-01-07T21:19:11.363Z,20.98
2023-01-07T21:22:13.781Z,20.02
2023-01-07T21:25:18.090Z,20.65
2023-01-07T21:31:23.681Z,20.58
2023-01-07T21:34:26.397Z,20.98
2023-01-07T21:37:29.465Z,22.70
2023-01-07T21:40:31.900Z,21.48
2023-01-07T21:43:35.113Z,22.10
2023-01-07T21:46:37.558Z,23.20
2023-01-07T21:49:40.173Z,22.52
2023-01-07T21:52:42.934Z,22.42
2023-01-07T21:55:45.773Z,22.52
2023-01-07T21:58:49.059Z,21.58
2023-01-07T22:01:52.617Z,22.80
2023-01-07T22:04:55.292Z,22.55
2023-01-07T22:07:57.824Z,21.80
2023-01-07T22:11:00.576Z,24.00
2023-01-07T22:14:02.950Z,21.67
2023-01-07T22:17:06.786Z,22.15
2023-01-07T22:20:09.948Z,21.73
2023-01-07T22:23:17.132Z,23.15
2023-01-07T22:26:20.498Z,22.92
2023-01-07T22:29:23.202Z,22.98
2023-01-07T22:32:25.513Z,22.73
2023-01-07T22:35:30.393Z,21.37
2023-01-07T22:38:33.190Z,23.05
2023-01-07T22:41:36.481Z,23.20
2023-01-07T22:44:45.952Z,21.98
2023-01-07T22:47:50.978Z,23.90
2023-01-07T22:51:07.160Z,23.62
2023-01-07T22:54:11.577Z,24.87
2023-01-07T22:57:14.691Z,23.00
2023-01-07T23:00:41.397Z,22.80
2023-01-07T23:03:45.197Z,23.38
2023-01-07T23:06:47.904Z,23.17
2023-01-07T23:09:51.655Z,22.67
2023-01-07T23:12:54.462Z,23.87
2023-01-07T23:16:00.249Z,24.33
2023-01-07T23:19:02.902Z,24.12
2023-01-07T23:22:05.479Z,23.33
2023-01-07T23:25:08.371Z,24.15
2023-01-07T23:28:10.746Z,24.08
2023-01-07T23:31:13.568Z,24.20
2023-01-07T23:34:16.453Z,24.02
2023-01-07T23:37:19.049Z,23.10
2023-01-07T23:40:21.443Z,23.55
2023-01-07T23:43:24.327Z,23.40
2023-01-07T23:46:26.703Z,23.67
2023-01-07T23:49:29.691Z,24.30
2023-01-07T23:52:31.991Z,24.90
2023-01-07T23:55:34.685Z,24.30
2023-01-07T23:58:37.931Z,24.27
